createdAt,value
2022-10-18T00:00:09.196Z,19.27
2022-10-18T00:02:37.758Z,19.26
2022-10-18T00:05:04.669Z,19.27
2022-10-18T00:07:31.452Z,19.26
2022-10-18T00:09:58.147Z,19.25
2022-10-18T00:12:24.628Z,19.24
2022-10-18T00:14:51.529Z,19.25
2022-10-18T00:17:18.283Z,19.25
2022-10-18T00:19:49.634Z,19.23
2022-10-18T00:22:16.406Z,19.25
2022-10-18T00:24:44.676Z,19.24
2022-10-18T00:27:11.242Z,19.24
2022-10-18T00:29:37.852Z,19.26
2022-10-18T00:32:04.524Z,19.25
2022-10-18T00:34:31.617Z,19.21
2022-10-18T00:36:58.122Z,19.19
2022-10-18T00:39:24.589Z,19.19
2022-10-18T00:41:51.550Z,19.19
2022-10-18T00:44:18.538Z,19.21
2022-10-18T00:46:47.798Z,19.24
2022-10-18T00:49:25.094Z,19.26
2022-10-18T00:52:00.809Z,19.27
2022-10-18T00:54:29.607Z,19.28
2022-10-18T00:56:56.213Z,19.29
2022-10-18T00:59:23.507Z,19.28
2022-10-18T01:01:50.448Z,19.29
2022-10-18T01:04:19.957Z,19.30
2022-10-18T01:07:15.230Z,19.27
2022-10-18T01:09:47.389Z,19.27
2022-10-18T01:12:49.466Z,19.26
2022-10-18T01:15:21.164Z,19.25
2022-10-18T01:18:12.053Z,19.24
2022-10-18T01:21:09.864Z,19.24
2022-10-18T01:24:33.732Z,19.20
2022-10-18T01:27:29.790Z,19.21
2022-10-18T01:30:20.574Z,19.21
2022-10-18T01:32:54.029Z,19.21
2022-10-18T01:35:44.986Z,19.20
2022-10-18T01:38:17.168Z,19.22
2022-10-18T01:40:47.330Z,19.23
2022-10-18T01:43:15.906Z,19.23
2022-10-18T01:45:42.543Z,19.23
2022-10-18T01:48:11.681Z,19.23
2022-10-18T01:50:38.186Z,19.24
2022-10-18T01:53:04.638Z,19.25
2022-10-18T01:55:51.197Z,19.25
2022-10-18T01:58:40.596Z,19.25
2022-10-18T02:01:18.097Z,19.26
2022-10-18T02:03:47.737Z,19.26
2022-10-18T02:06:22.534Z,19.25
2022-10-18T02:09:02.798Z,19.26
2022-10-18T02:11:32.270Z,19.27
2022-10-18T02:14:19.492Z,19.27
2022-10-18T02:16:51.696Z,19.26
2022-10-18T02:19:38.167Z,19.24
2022-10-18T02:22:07.584Z,19.23
2022-10-18T02:24:43.207Z,19.22
2022-10-18T02:27:10.710Z,19.21
2022-10-18T02:29:38.075Z,19.21
2022-10-18T02:32:11.745Z,19.21
2022-10-18T02:34:44.949Z,19.21
2022-10-18T02:37:13.323Z,19.20
2022-10-18T02:39:45.251Z,19.20
2022-10-18T02:42:13.554Z,19.20
2022-10-18T02:44:41.916Z,19.20
2022-10-18T02:47:10.589Z,19.21
2022-10-18T02:49:37.117Z,19.22
2022-10-18T02:52:03.891Z,19.22
2022-10-18T02:54:31.664Z,19.21
2022-10-18T02:56:58.327Z,19.20
2022-10-18T02:59:24.823Z,19.19
2022-10-18T03:01:51.389Z,19.19
2022-10-18T03:04:21.169Z,19.19
2022-10-18T03:06:47.803Z,19.20
2022-10-18T03:09:14.284Z,19.21
2022-10-18T03:11:40.760Z,19.20
2022-10-18T03:14:14.202Z,19.20
2022-10-18T03:16:41.318Z,19.20
2022-10-18T03:19:07.870Z,19.20
2022-10-18T03:21:34.395Z,19.20
2022-10-18T03:24:03.269Z,19.17
2022-10-18T03:26:29.749Z,19.18
2022-10-18T03:28:56.583Z,19.18
2022-10-18T03:31:23.336Z,19.17
2022-10-18T03:33:49.878Z,19.17
2022-10-18T03:36:16.492Z,19.15
2022-10-18T03:38:43.138Z,19.15
2022-10-18T03:41:09.726Z,19.14
2022-10-18T03:43:36.258Z,19.13
2022-10-18T03:46:02.851Z,19.10
2022-10-18T03:48:29.318Z,19.08
2022-10-18T03:50:55.834Z,19.10
2022-10-18T03:53:22.315Z,19.10
2022-10-18T03:55:56.087Z,19.10
2022-10-18T03:58:23.399Z,19.08
2022-10-18T04:00:51.438Z,19.07
2022-10-18T04:03:19.043Z,19.09
2022-10-18T04:05:50.713Z,19.08
2022-10-18T04:08:17.931Z,19.07
2022-10-18T04:10:45.605Z,19.07
2022-10-18T04:13:12.266Z,19.06
2022-10-18T04:15:39.967Z,19.07
2022-10-18T04:18:06.542Z,19.07
2022-10-18T04:20:33.063Z,19.05
2022-10-18T04:22:59.506Z,19.05
2022-10-18T04:25:27.096Z,19.01
2022-10-18T04:27:53.578Z,19.02
2022-10-18T04:30:20.320Z,19.01
2022-10-18T04:32:46.892Z,19.01
2022-10-18T04:35:13.798Z,18.99
2022-10-18T04:37:40.341Z,18.98
2022-10-18T04:40:07.944Z,18.97
2022-10-18T04:42:34.450Z,18.98
2022-10-18T04:45:02.399Z,18.97
2022-10-18T04:47:29.087Z,18.98
2022-10-18T04:49:55.780Z,18.98
2022-10-18T04:52:22.253Z,18.99
2022-10-18T04:54:51.566Z,18.99
2022-10-18T04:57:18.102Z,18.99
2022-10-18T04:59:44.703Z,19.00
2022-10-18T05:02:11.390Z,18.99
2022-10-18T05:04:38.438Z,18.99
2022-10-18T05:07:06.610Z,18.99
2022-10-18T05:09:33.701Z,19.00
2022-10-18T05:12:00.238Z,19.01
2022-10-18T05:14:28.411Z,19.01
2022-10-18T05:16:54.917Z,19.03
2022-10-18T05:19:21.525Z,19.02
2022-10-18T05:21:48.087Z,19.02
2022-10-18T05:24:16.350Z,19.01
2022-10-18T05:26:42.873Z,19.00
2022-10-18T05:29:09.543Z,19.01
2022-10-18T05:31:36.123Z,19.02
2022-10-18T05:34:05.775Z,19.02
2022-10-18T05:36:32.308Z,19.02
2022-10-18T05:39:01.128Z,19.03
2022-10-18T05:41:30.991Z,19.00
2022-10-18T05:44:06.355Z,18.95
2022-10-18T05:46:32.953Z,18.93
2022-10-18T05:48:59.525Z,18.92
2022-10-18T05:51:25.984Z,18.86
2022-10-18T05:54:00.676Z,18.79
2022-10-18T05:56:28.715Z,18.75
2022-10-18T05:58:55.294Z,18.75
2022-10-18T06:01:21.833Z,18.76
2022-10-18T06:03:48.365Z,18.75
2022-10-18T06:06:15.503Z,18.77
2022-10-18T06:08:43.567Z,18.77
2022-10-18T06:11:15.265Z,18.78
2022-10-18T06:13:43.854Z,18.78
2022-10-18T06:16:12.386Z,18.78
2022-10-18T06:18:39.670Z,18.78
2022-10-18T06:21:06.785Z,18.79
2022-10-18T06:23:33.717Z,18.78
2022-10-18T06:26:01.966Z,18.81
2022-10-18T06:28:29.870Z,18.78
2022-10-18T06:30:57.910Z,18.78
2022-10-18T06:33:24.583Z,18.76
2022-10-18T06:35:59.871Z,18.75
2022-10-18T06:38:27.090Z,18.76
2022-10-18T06:40:54.529Z,18.75
2022-10-18T06:43:21.762Z,18.71
2022-10-18T06:45:49.070Z,18.67
2022-10-18T06:48:16.446Z,18.65
2022-10-18T06:50:43.415Z,18.66
2022-10-18T06:53:10.027Z,18.66
2022-10-18T06:55:39.796Z,18.67
2022-10-18T06:58:06.735Z,18.68
2022-10-18T07:00:33.249Z,18.70
2022-10-18T07:02:59.814Z,18.71
2022-10-18T07:05:26.417Z,18.72
2022-10-18T07:07:56.340Z,18.73
2022-10-18T07:10:23.996Z,18.72
2022-10-18T07:12:53.514Z,18.71
2022-10-18T07:15:24.534Z,18.69
2022-10-18T07:17:51.250Z,18.70
2022-10-18T07:20:17.845Z,18.70
2022-10-18T07:22:44.380Z,18.70
2022-10-18T07:25:12.359Z,18.75
2022-10-18T07:27:43.028Z,18.77
2022-10-18T07:30:11.029Z,18.79
2022-10-18T07:32:37.560Z,18.80
2022-10-18T07:35:04.594Z,18.82
2022-10-18T07:37:31.818Z,18.84
2022-10-18T07:39:58.595Z,18.85
2022-10-18T07:42:25.099Z,18.85
2022-10-18T07:44:51.663Z,18.85
2022-10-18T07:47:18.176Z,18.85
2022-10-18T07:49:44.716Z,18.86
2022-10-18T07:52:11.943Z,18.89
2022-10-18T07:54:42.695Z,18.88
2022-10-18T07:57:09.172Z,18.87
2022-10-18T07:59:35.676Z,18.88
2022-10-18T08:02:02.186Z,18.88
2022-10-18T08:04:30.298Z,18.90
2022-10-18T08:06:56.844Z,18.92
2022-10-18T08:09:23.354Z,18.96
2022-10-18T08:11:49.867Z,19.01
2022-10-18T08:14:17.295Z,19.05
2022-10-18T08:16:43.880Z,19.12
2022-10-18T08:19:10.673Z,19.17
2022-10-18T08:21:37.195Z,19.21
2022-10-18T08:24:05.610Z,19.26
2022-10-18T08:26:32.176Z,19.31
2022-10-18T08:29:17.763Z,19.33
2022-10-18T08:31:45.336Z,19.41
2022-10-18T08:34:19.511Z,19.45
2022-10-18T08:36:46.394Z,19.48
2022-10-18T08:39:12.905Z,19.48
2022-10-18T08:42:11.870Z,19.50
2022-10-18T08:44:49.567Z,19.51
2022-10-18T08:47:41.700Z,19.50
2022-10-18T08:50:16.279Z,19.54
2022-10-18T08:53:10.612Z,19.57
2022-10-18T08:55:45.328Z,19.67
2022-10-18T08:58:19.442Z,19.79
2022-10-18T09:01:23.470Z,19.92
2022-10-18T09:04:21.549Z,20.07
2022-10-18T09:07:16.522Z,20.24
2022-10-18T09:09:54.545Z,20.35
2022-10-18T09:12:45.507Z,20.45
2022-10-18T09:15:29.872Z,20.60
2022-10-18T09:18:04.654Z,20.69
2022-10-18T09:20:47.824Z,20.73
2022-10-18T09:23:23.043Z,20.76
2022-10-18T09:26:00.963Z,20.81
2022-10-18T09:28:49.724Z,20.92
2022-10-18T09:31:28.798Z,20.96
2022-10-18T09:34:23.212Z,20.98
2022-10-18T09:36:52.458Z,21.05
2022-10-18T09:39:23.671Z,21.12
2022-10-18T09:41:57.785Z,21.18
2022-10-18T09:44:41.860Z,21.17
2022-10-18T09:47:16.815Z,21.23
2022-10-18T09:49:52.127Z,21.31
2022-10-18T09:52:42.423Z,21.42
2022-10-18T09:55:30.708Z,21.50
2022-10-18T09:58:02.415Z,21.62
2022-10-18T10:00:33.482Z,21.74
2022-10-18T10:03:01.919Z,21.84
2022-10-18T10:05:28.440Z,21.91
2022-10-18T10:07:59.806Z,22.02
2022-10-18T10:10:29.093Z,22.14
2022-10-18T10:13:17.289Z,22.26
2022-10-18T10:15:54.017Z,22.35
2022-10-18T10:18:23.353Z,22.43
2022-10-18T10:20:58.182Z,22.51
2022-10-18T10:23:33.012Z,22.64
2022-10-18T10:26:04.957Z,22.74
2022-10-18T10:28:37.498Z,22.79
2022-10-18T10:31:25.890Z,22.85
2022-10-18T10:34:13.144Z,22.92
2022-10-18T10:36:54.417Z,22.99
2022-10-18T10:39:23.697Z,23.03
2022-10-18T10:41:57.962Z,23.08
2022-10-18T10:44:32.121Z,23.13
2022-10-18T10:46:59.436Z,23.21
2022-10-18T10:49:47.509Z,23.30
2022-10-18T10:52:28.031Z,23.37
2022-10-18T10:55:11.368Z,23.40
2022-10-18T10:57:47.157Z,23.48
2022-10-18T11:00:52.253Z,23.53
2022-10-18T11:03:29.075Z,23.62
2022-10-18T11:06:01.842Z,23.71
2022-10-18T11:08:34.025Z,23.79
2022-10-18T11:11:26.698Z,23.85
2022-10-18T11:17:06.962Z,23.92
2022-10-18T11:19:43.093Z,23.98
2022-10-18T11:22:15.064Z,24.06
2022-10-18T11:24:43.534Z,24.11
2022-10-18T11:27:32.655Z,24.14
2022-10-18T11:30:21.043Z,24.18
2022-10-18T11:33:07.888Z,24.24
2022-10-18T11:35:47.434Z,24.31
2022-10-18T11:38:30.914Z,24.38
2022-10-18T11:41:23.425Z,24.40
2022-10-18T11:44:37.236Z,24.42
2022-10-18T11:47:37.027Z,24.48
2022-10-18T11:50:36.085Z,24.54
2022-10-18T11:53:17.978Z,24.58
2022-10-18T11:55:53.631Z,24.62
2022-10-18T11:59:11.599Z,24.66
2022-10-18T12:01:50.463Z,24.75
2022-10-18T12:04:27.949Z,24.77
2022-10-18T12:06:57.265Z,24.78
2022-10-18T12:09:28.779Z,24.75
2022-10-18T12:12:07.818Z,24.75
2022-10-18T12:14:42.397Z,24.69
2022-10-18T12:17:46.124Z,24.69
2022-10-18T12:20:26.018Z,24.74
2022-10-18T12:23:10.550Z,24.79
2022-10-18T12:25:45.582Z,24.88
2022-10-18T12:28:30.899Z,24.95
2022-10-18T12:31:07.583Z,24.96
2022-10-18T12:33:38.580Z,24.94
2022-10-18T12:36:20.822Z,24.93
2022-10-18T12:39:11.518Z,24.96
2022-10-18T12:41:38.590Z,25.07
2022-10-18T12:44:20.989Z,25.12
2022-10-18T12:46:56.063Z,25.15
2022-10-18T12:49:38.195Z,25.22
2022-10-18T12:52:24.749Z,25.29
2022-10-18T12:55:21.512Z,25.27
2022-10-18T12:57:54.135Z,25.28
2022-10-18T13:00:29.544Z,25.30
2022-10-18T13:03:14.329Z,25.32
2022-10-18T13:05:57.815Z,25.34
2022-10-18T13:08:27.071Z,25.34
2022-10-18T13:11:08.997Z,25.31
2022-10-18T13:13:59.703Z,25.25
2022-10-18T13:16:42.646Z,25.23
2022-10-18T13:19:34.847Z,25.19
2022-10-18T13:22:25.568Z,25.23
2022-10-18T13:25:13.372Z,25.23
2022-10-18T13:28:00.223Z,25.22
2022-10-18T13:30:50.991Z,25.22
2022-10-18T13:33:32.161Z,25.26
2022-10-18T13:36:04.034Z,25.26
2022-10-18T13:38:38.886Z,25.23
2022-10-18T13:41:32.774Z,25.21
2022-10-18T13:44:40.039Z,25.19
2022-10-18T13:47:07.095Z,25.15
2022-10-18T13:49:39.471Z,25.09
2022-10-18T13:52:31.360Z,25.03
2022-10-18T13:55:18.853Z,25.06
2022-10-18T13:58:07.834Z,25.06
2022-10-18T14:00:52.967Z,24.99
2022-10-18T14:03:58.532Z,24.93
2022-10-18T14:06:28.992Z,24.88
2022-10-18T14:12:35.712Z,24.68
2022-10-18T14:15:34.610Z,24.66
2022-10-18T14:18:12.381Z,24.68
2022-10-18T14:21:01.252Z,24.67
2022-10-18T14:23:35.173Z,24.60
2022-10-18T14:26:18.478Z,24.55
2022-10-18T14:28:59.594Z,24.50
2022-10-18T14:31:27.250Z,24.43
2022-10-18T14:33:58.895Z,24.37
2022-10-18T14:36:42.406Z,24.31
2022-10-18T14:39:21.062Z,24.27
2022-10-18T14:41:53.430Z,24.20
2022-10-18T14:44:31.417Z,24.13
2022-10-18T14:47:16.381Z,24.09
2022-10-18T14:49:44.850Z,24.02
2022-10-18T14:52:15.990Z,23.90
2022-10-18T14:54:47.074Z,23.76
2022-10-18T14:57:25.165Z,23.61
2022-10-18T14:59:57.060Z,23.51
2022-10-18T15:02:28.334Z,23.39
2022-10-18T15:05:20.650Z,23.31
2022-10-18T15:07:48.431Z,23.20
2022-10-18T15:10:20.028Z,23.11
2022-10-18T15:13:11.340Z,23.02
2022-10-18T15:15:35.070Z,22.94
2022-10-18T15:18:01.939Z,22.86
2022-10-18T15:20:31.871Z,22.78
2022-10-18T15:23:29.579Z,22.67
2022-10-18T15:26:08.216Z,22.56
2022-10-18T15:28:39.355Z,22.46
2022-10-18T15:31:06.866Z,22.36
2022-10-18T15:33:36.500Z,22.28
2022-10-18T15:36:26.062Z,22.18
2022-10-18T15:38:52.680Z,22.13
2022-10-18T15:41:39.512Z,22.04
2022-10-18T15:44:34.793Z,21.93
2022-10-18T15:47:13.410Z,21.87
2022-10-18T15:49:46.222Z,21.80
2022-10-18T15:52:21.952Z,21.70
2022-10-18T15:57:20.308Z,21.61
2022-10-18T15:59:54.923Z,21.56
2022-10-18T16:02:21.514Z,21.52
2022-10-18T16:04:49.806Z,21.47
2022-10-18T16:07:16.514Z,21.41
2022-10-18T16:09:43.250Z,21.34
2022-10-18T16:12:09.802Z,21.27
2022-10-18T16:14:37.930Z,21.21
2022-10-18T16:17:06.765Z,21.14
2022-10-18T16:19:33.851Z,21.06
2022-10-18T16:22:06.149Z,20.97
2022-10-18T16:24:33.941Z,20.89
2022-10-18T16:27:00.457Z,20.82
2022-10-18T16:29:31.876Z,20.74
2022-10-18T16:31:59.842Z,20.68
2022-10-18T16:34:29.453Z,20.59
2022-10-18T16:36:55.942Z,20.50
2022-10-18T16:39:23.423Z,20.40
2022-10-18T16:41:51.188Z,20.32
2022-10-18T16:44:20.051Z,20.25
2022-10-18T16:46:50.985Z,20.18
2022-10-18T16:49:24.032Z,20.10
2022-10-18T16:51:52.512Z,20.02
2022-10-18T16:54:23.670Z,19.92
2022-10-18T16:56:51.102Z,19.85
2022-10-18T16:59:28.937Z,19.77
2022-10-18T17:01:55.727Z,19.72
2022-10-18T17:04:27.232Z,19.64
2022-10-18T17:06:55.255Z,19.60
2022-10-18T17:09:22.117Z,19.54
2022-10-18T17:11:53.742Z,19.47
2022-10-18T17:14:21.864Z,19.36
2022-10-18T17:16:52.297Z,19.30
2022-10-18T17:19:22.380Z,19.24
2022-10-18T17:21:49.168Z,19.19
2022-10-18T17:24:16.970Z,19.15
2022-10-18T17:26:43.554Z,19.11
2022-10-18T17:29:10.100Z,19.05
2022-10-18T17:31:36.887Z,18.99
2022-10-18T17:34:08.905Z,18.93
2022-10-18T17:36:35.647Z,18.86
2022-10-18T17:39:02.907Z,18.77
2022-10-18T17:41:29.432Z,18.68
2022-10-18T17:44:05.707Z,18.60
2022-10-18T17:46:32.209Z,18.54
2022-10-18T17:48:58.725Z,18.47
2022-10-18T17:51:25.174Z,18.41
2022-10-18T17:53:58.986Z,18.37
2022-10-18T17:56:30.987Z,18.31
2022-10-18T17:58:57.432Z,18.22
2022-10-18T18:01:23.985Z,18.17
2022-10-18T18:04:02.610Z,18.11
2022-10-18T18:06:33.790Z,18.04
2022-10-18T18:09:04.929Z,17.98
2022-10-18T18:11:31.450Z,17.95
2022-10-18T18:14:02.247Z,17.90
2022-10-18T18:16:29.952Z,17.86
2022-10-18T18:18:58.291Z,17.80
2022-10-18T18:21:26.453Z,17.73
2022-10-18T18:24:14.064Z,17.61
2022-10-18T18:26:40.778Z,17.57
2022-10-18T18:29:07.502Z,17.51
2022-10-18T18:31:38.845Z,17.46
2022-10-18T18:34:13.078Z,17.43
2022-10-18T18:36:40.288Z,17.41
2022-10-18T18:39:08.787Z,17.39
2022-10-18T18:41:37.318Z,17.37
2022-10-18T18:44:08.046Z,17.35
2022-10-18T18:46:38.903Z,17.32
2022-10-18T18:49:08.045Z,17.29
2022-10-18T18:51:37.393Z,17.25
2022-10-18T18:54:05.593Z,17.20
2022-10-18T18:56:32.209Z,17.15
2022-10-18T18:58:59.441Z,17.12
2022-10-18T19:01:29.654Z,17.07
2022-10-18T19:04:06.198Z,17.02
2022-10-18T19:06:38.671Z,16.99
2022-10-18T19:09:18.657Z,16.94
2022-10-18T19:11:46.971Z,16.90
2022-10-18T19:14:15.407Z,16.84
2022-10-18T19:16:47.816Z,16.78
2022-10-18T19:19:18.206Z,16.73
2022-10-18T19:21:51.375Z,16.68
2022-10-18T19:24:23.999Z,16.63
2022-10-18T19:26:53.163Z,16.58
2022-10-18T19:29:25.529Z,16.52
2022-10-18T19:31:53.844Z,16.47
2022-10-18T19:34:24.699Z,16.42
2022-10-18T19:36:51.664Z,16.38
2022-10-18T19:39:21.234Z,16.32
2022-10-18T19:41:50.618Z,16.26
2022-10-18T19:44:19.622Z,16.20
2022-10-18T19:46:46.870Z,16.16
2022-10-18T19:49:13.614Z,16.08
2022-10-18T19:51:40.934Z,16.04
2022-10-18T19:54:12.956Z,16.02
2022-10-18T19:56:41.635Z,16.02
2022-10-18T19:59:09.242Z,16.00
2022-10-18T20:01:35.914Z,15.99
2022-10-18T20:04:08.354Z,16.01
2022-10-18T20:06:36.449Z,16.04
2022-10-18T20:09:03.440Z,16.07
2022-10-18T20:11:30.274Z,16.13
2022-10-18T20:14:06.222Z,16.14
2022-10-18T20:16:34.111Z,16.16
2022-10-18T20:19:02.951Z,16.13
2022-10-18T20:21:35.348Z,16.08
2022-10-18T20:24:07.447Z,16.09
2022-10-18T20:26:35.705Z,16.08
2022-10-18T20:29:02.404Z,16.08
2022-10-18T20:31:31.043Z,16.07
2022-10-18T20:34:04.129Z,16.03
2022-10-18T20:36:32.482Z,16.04
2022-10-18T20:39:00.138Z,16.03
2022-10-18T20:41:29.274Z,16.04
2022-10-18T20:44:03.736Z,16.02
2022-10-18T20:46:32.571Z,16.01
2022-10-18T20:48:59.074Z,15.98
2022-10-18T20:51:25.714Z,15.96
2022-10-18T20:54:08.479Z,15.92
2022-10-18T20:56:36.547Z,15.85
2022-10-18T20:59:06.154Z,15.82
2022-10-18T21:01:34.214Z,15.79
2022-10-18T21:04:08.883Z,15.73
2022-10-18T21:06:42.606Z,15.67
2022-10-18T21:09:14.019Z,15.61
2022-10-18T21:11:42.970Z,15.56
2022-10-18T21:14:19.539Z,15.51
2022-10-18T21:16:46.595Z,15.49
2022-10-18T21:19:17.082Z,15.44
2022-10-18T21:21:45.903Z,15.39
2022-10-18T21:24:16.815Z,15.36
2022-10-18T21:26:43.876Z,15.34
2022-10-18T21:29:11.916Z,15.32
2022-10-18T21:31:40.228Z,15.29
2022-10-18T21:34:15.170Z,15.25
2022-10-18T21:36:43.506Z,15.20
2022-10-18T21:39:18.643Z,15.16
2022-10-18T21:41:45.985Z,15.10
2022-10-18T21:44:14.373Z,15.07
2022-10-18T21:46:43.087Z,15.03
2022-10-18T21:49:10.368Z,14.97
2022-10-18T21:51:37.686Z,14.91
2022-10-18T21:54:08.731Z,14.88
2022-10-18T21:56:35.794Z,14.86
2022-10-18T21:59:03.013Z,14.85
2022-10-18T22:01:32.486Z,14.82
2022-10-18T22:04:03.301Z,14.79
2022-10-18T22:06:32.780Z,14.75
2022-10-18T22:09:01.948Z,14.73
2022-10-18T22:11:33.361Z,14.72
2022-10-18T22:14:01.973Z,14.76
2022-10-18T22:16:28.628Z,14.76
2022-10-18T22:19:00.975Z,14.77
2022-10-18T22:21:28.116Z,14.78
2022-10-18T22:23:59.726Z,14.76
2022-10-18T22:26:28.853Z,14.75
2022-10-18T22:29:01.103Z,14.74
2022-10-18T22:31:30.523Z,14.71
2022-10-18T22:34:07.732Z,14.69
2022-10-18T22:36:35.029Z,14.67
2022-10-18T22:39:05.453Z,14.62
2022-10-18T22:41:32.588Z,14.55
2022-10-18T22:44:04.744Z,14.49
2022-10-18T22:46:32.901Z,14.43
2022-10-18T22:48:59.734Z,14.37
2022-10-18T22:51:26.314Z,14.27
2022-10-18T22:54:13.282Z,14.17
2022-10-18T22:56:39.839Z,14.12
2022-10-18T22:59:06.319Z,14.07
2022-10-18T23:01:32.837Z,14.05
2022-10-18T23:04:04.496Z,13.99
2022-10-18T23:06:33.577Z,13.97
2022-10-18T23:09:04.833Z,13.93
2022-10-18T23:11:32.183Z,13.90
2022-10-18T23:14:04.752Z,13.86
2022-10-18T23:16:31.761Z,13.81
2022-10-18T23:18:59.108Z,13.75
2022-10-18T23:21:27.932Z,13.71
2022-10-18T23:23:58.761Z,13.65
2022-10-18T23:26:27.806Z,13.60
2022-10-18T23:28:54.813Z,13.56
2022-10-18T23:31:30.268Z,13.52
2022-10-18T23:34:02.410Z,13.45
2022-10-18T23:36:29.290Z,13.46
2022-10-18T23:38:56.423Z,13.42
2022-10-18T23:41:23.973Z,13.42
2022-10-18T23:43:50.682Z,13.41
2022-10-18T23:46:20.946Z,13.41
2022-10-18T23:48:48.362Z,13.40
2022-10-18T23:51:15.692Z,13.40
2022-10-18T23:53:42.535Z,13.40
2022-10-18T23:56:14.506Z,13.42
2022-10-18T23:58:41.967Z,13.41
